Time;durP1;ratioP1;P1;durP2;ratioP2;P2;SDS_P1;SDS_P2;PMS_P1;PMS_P2;Temp;Humidity;BMP_temperature;BMP_pressure;BME280_temperature;BME280_humidity;BME280_pressure;Samples;Min_cycle;Max_cycle;Signal;HPM_P1;HPM_P2
2021/11/17 07:01:42;;;;;;;13.07;2.38;;;10.30;99.90;;;;;;6155634;23;20048;-82
2021/11/17 07:04:09;;;;;;;17.52;2.75;;;10.30;99.90;;;;;;6197381;23;20075;-84
2021/11/17 07:06:36;;;;;;;8.32;2.00;;;10.30;99.90;;;;;;6193360;23;20017;-84
2021/11/17 07:09:04;;;;;;;13.25;3.13;;;10.30;99.90;;;;;;6167327;23;20083;-83
2021/11/17 07:11:37;;;;;;;10.75;2.33;;;10.20;99.90;;;;;;6192583;23;20028;-83
2021/11/17 07:14:12;;;;;;;10.77;2.60;;;10.20;99.90;;;;;;6167695;23;20020;-82
2021/11/17 07:16:39;;;;;;;11.18;2.55;;;10.20;99.90;;;;;;6191880;23;20013;-83
2021/11/17 07:19:09;;;;;;;8.40;2.58;;;10.20;99.90;;;;;;6179179;23;20024;-83
2021/11/17 07:21:38;;;;;;;11.85;2.70;;;10.20;99.90;;;;;;6181145;23;20029;-84
2021/11/17 07:24:05;;;;;;;;;;;10.20;99.90;;;;;;6181655;23;20574;-82
2021/11/17 07:26:32;;;;;;;13.95;4.20;;;10.20;99.90;;;;;;6179235;23;19916;-83
2021/11/17 07:28:59;;;;;;;8.25;2.80;;;10.30;99.90;;;;;;6181222;23;20063;-84
2021/11/17 07:31:26;;;;;;;13.45;2.85;;;10.30;99.90;;;;;;6180052;23;20466;-84
2021/11/17 07:33:53;;;;;;;11.70;2.45;;;10.30;99.90;;;;;;6178068;23;20013;-84
2021/11/17 07:36:21;;;;;;;11.00;2.50;;;10.30;99.90;;;;;;6179030;23;20025;-84
2021/11/17 07:38:49;;;;;;;12.65;3.83;;;10.40;99.90;;;;;;6179705;23;20017;-83
2021/11/17 07:41:16;;;;;;;9.93;3.28;;;10.40;99.90;;;;;;6178440;23;20048;-83
2021/11/17 07:43:43;;;;;;;14.13;3.65;;;10.40;99.90;;;;;;6178285;23;20037;-83
2021/11/17 07:46:10;;;;;;;18.05;3.70;;;10.50;99.90;;;;;;6179221;23;20017;-83
2021/11/17 07:48:37;;;;;;;17.33;3.75;;;10.50;99.90;;;;;;6178358;23;20062;-83
2021/11/17 07:51:05;;;;;;;15.10;3.35;;;10.60;99.90;;;;;;6177378;23;20029;-81
2021/11/17 07:53:33;;;;;;;13.50;4.32;;;10.60;99.90;;;;;;6179153;23;20336;-83
2021/11/17 07:56:02;;;;;;;7.95;3.30;;;10.60;99.90;;;;;;6178455;23;20408;-83
2021/11/17 07:58:39;;;;;;;14.50;3.70;;;10.70;99.90;;;;;;6179562;23;20017;-83
2021/11/17 08:01:06;;;;;;;10.95;3.08;;;10.70;99.90;;;;;;6179360;23;20020;-82
2021/11/17 08:03:57;;;;;;;14.55;4.28;;;10.80;99.90;;;;;;6179486;23;20056;-83
2021/11/17 08:06:26;;;;;;;11.57;3.60;;;10.80;99.90;;;;;;6179283;23;20052;-83
2021/11/17 08:08:53;;;;;;;15.35;3.65;;;10.80;99.90;;;;;;6178677;23;20076;-83
2021/11/17 08:11:21;;;;;;;16.73;4.57;;;10.90;99.90;;;;;;6178637;23;20021;-83
2021/11/17 08:13:50;;;;;;;13.93;3.63;;;10.90;99.90;;;;;;6178090;23;20475;-83
2021/11/17 08:16:17;;;;;;;14.52;4.07;;;11.00;99.90;;;;;;6179265;23;20091;-83
2021/11/17 08:18:44;;;;;;;13.60;3.80;;;11.00;99.90;;;;;;6177815;23;20399;-83
2021/11/17 08:21:14;;;;;;;9.18;2.63;;;11.10;99.90;;;;;;6177968;23;20021;-82
2021/11/17 08:23:41;;;;;;;11.80;3.47;;;11.10;99.90;;;;;;6181215;23;20091;-83
2021/11/17 08:26:10;;;;;;;7.40;2.47;;;11.10;99.90;;;;;;6179776;23;20021;-83
2021/11/17 08:28:37;;;;;;;;;;;11.20;99.90;;;;;;6182102;23;20406;-83
2021/11/17 08:31:04;;;;;;;12.05;3.88;;;11.20;99.90;;;;;;6181269;23;19982;-83
2021/11/17 08:33:31;;;;;;;13.45;2.95;;;11.30;99.90;;;;;;6192535;23;20419;-84
2021/11/17 08:36:00;;;;;;;14.02;3.70;;;11.30;99.90;;;;;;6193714;23;20491;-83
2021/11/17 08:38:27;;;;;;;9.75;2.80;;;11.40;99.90;;;;;;6171362;23;20012;-83
2021/11/17 08:40:59;;;;;;;9.88;2.58;;;11.40;99.90;;;;;;6179191;23;20385;-82
2021/11/17 08:43:28;;;;;;;12.73;3.13;;;11.50;99.90;;;;;;6180855;23;20024;-82
2021/11/17 08:45:55;;;;;;;13.10;2.88;;;11.50;99.90;;;;;;6179206;23;20013;-83
2021/11/17 08:48:27;;;;;;;9.30;2.78;;;11.60;99.90;;;;;;6180587;23;20029;-82
2021/11/17 08:50:56;;;;;;;10.52;2.63;;;11.70;99.90;;;;;;6180478;23;20359;-83
2021/11/17 08:53:26;;;;;;;12.68;3.25;;;11.80;99.90;;;;;;6179258;23;20834;-83
2021/11/17 08:55:54;;;;;;;13.00;4.20;;;11.90;99.90;;;;;;6179384;23;20025;-82
2021/11/17 08:58:24;;;;;;;10.27;3.90;;;12.00;99.90;;;;;;6179033;23;20025;-82
2021/11/17 09:00:51;;;;;;;10.63;3.47;;;12.00;99.90;;;;;;6178890;23;20025;-82
2021/11/17 09:03:21;;;;;;;12.73;3.40;;;12.10;99.90;;;;;;6180111;23;20075;-83
2021/11/17 09:05:57;;;;;;;10.27;3.30;;;12.10;99.90;;;;;;6179570;23;20017;-83
2021/11/17 09:08:25;;;;;;;10.20;3.40;;;12.20;99.90;;;;;;6180441;23;20089;-83
2021/11/17 09:10:56;;;;;;;14.63;3.65;;;12.20;99.90;;;;;;6180813;23;20076;-83
2021/11/17 09:13:23;;;;;;;12.65;4.00;;;12.20;99.90;;;;;;6180442;23;20020;-83
2021/11/17 09:15:54;;;;;;;13.30;5.07;;;12.30;99.90;;;;;;6180602;23;20670;-83
2021/11/17 09:18:23;;;;;;;18.55;5.93;;;12.30;99.90;;;;;;6180690;23;20032;-83
2021/11/17 09:20:51;;;;;;;13.48;4.85;;;12.40;99.90;;;;;;6180441;23;20068;-82
2021/11/17 09:23:19;;;;;;;13.02;4.53;;;12.40;99.90;;;;;;6180131;23;20024;-83
2021/11/17 09:25:47;;;;;;;6.03;3.53;;;12.50;99.90;;;;;;6180739;23;20021;-83
2021/11/17 09:28:18;;;;;;;8.30;3.50;;;12.50;99.90;;;;;;6180254;23;20503;-83
2021/11/17 09:30:47;;;;;;;8.25;3.75;;;12.60;99.90;;;;;;6180299;23;20541;-84
2021/11/17 09:33:15;;;;;;;11.63;4.00;;;12.70;99.90;;;;;;6177966;23;20040;-83
2021/11/17 09:35:43;;;;;;;10.07;3.47;;;12.70;99.90;;;;;;6180400;23;20013;-83
2021/11/17 09:38:11;;;;;;;;;;;12.80;99.90;;;;;;6179094;23;20029;-83
2021/11/17 09:40:45;;;;;;;9.30;2.90;;;12.80;99.90;;;;;;6177527;23;19970;-83
2021/11/17 09:43:15;;;;;;;8.38;3.42;;;12.90;99.90;;;;;;6191834;23;20032;-83
2021/11/17 09:45:44;;;;;;;6.30;2.60;;;12.90;99.90;;;;;;6178745;23;20419;-83
2021/11/17 09:48:18;;;;;;;5.00;2.45;;;13.00;99.90;;;;;;6179734;23;20032;-82
2021/11/17 09:50:57;;;;;;;5.32;2.28;;;13.00;99.90;;;;;;6180364;23;20074;-83
2021/11/17 09:53:39;;;;;;;3.33;1.60;;;13.00;99.90;;;;;;6179475;23;20452;-83
2021/11/17 09:56:29;;;;;;;7.97;1.70;;;12.90;99.90;;;;;;6179735;23;20012;-82
2021/11/17 09:59:01;;;;;;;9.57;2.30;;;12.70;99.90;;;;;;6180768;23;20021;-83
2021/11/17 10:01:48;;;;;;;6.60;1.75;;;12.70;99.90;;;;;;6179807;23;20013;-83
2021/11/17 10:04:15;;;;;;;11.30;2.10;;;12.60;99.90;;;;;;6179649;23;20456;-84
2021/11/17 10:14:54;;;;;;;15.10;2.70;;;12.80;99.90;;;;;;6179944;23;20471;-84
2021/11/17 10:17:40;;;;;;;13.48;2.40;;;12.90;99.90;;;;;;6179581;23;20029;-83
2021/11/17 10:20:31;;;;;;;17.25;2.33;;;13.00;99.90;;;;;;6180035;23;20051;-83
2021/11/17 10:23:16;;;;;;;11.75;2.70;;;13.10;99.90;;;;;;6180088;23;20076;-84
2021/11/17 10:25:48;;;;;;;15.60;3.03;;;13.10;99.90;;;;;;6180032;23;20035;-84
2021/11/17 10:28:39;;;;;;;15.48;2.60;;;13.10;99.90;;;;;;6179372;23;20471;-84
2021/11/17 10:31:15;;;;;;;15.93;2.53;;;13.10;99.90;;;;;;6179660;23;20472;-85
2021/11/17 10:34:00;;;;;;;14.35;2.30;;;13.10;99.90;;;;;;6180262;23;20031;-83
2021/11/17 10:36:37;;;;;;;15.55;2.35;;;13.20;99.90;;;;;;6179803;23;20024;-83
2021/11/17 10:39:21;;;;;;;10.93;2.40;;;13.10;99.90;;;;;;6180324;23;20017;-84
2021/11/17 10:41:59;;;;;;;21.70;2.50;;;13.20;99.90;;;;;;6177841;23;20052;-84
2021/11/17 10:44:56;;;;;;;24.08;3.90;;;13.20;99.90;;;;;;6179805;23;20025;-83
2021/11/17 10:47:45;;;;;;;17.35;3.17;;;13.10;99.90;;;;;;6087525;23;20018;-84
2021/11/17 10:50:42;;;;;;;19.42;3.90;;;13.20;99.90;;;;;;6087730;23;20097;-83
2021/11/17 10:53:24;;;;;;;18.95;3.33;;;13.20;99.90;;;;;;6038442;23;20086;-83
2021/11/17 10:55:55;;;;;;;25.30;3.92;;;13.20;99.90;;;;;;6117912;23;20364;-82
2021/11/17 10:58:24;;;;;;;22.83;3.40;;;13.20;99.90;;;;;;6117729;23;20018;-83
2021/11/17 11:00:58;;;;;;;18.73;3.72;;;13.20;99.90;;;;;;6117301;23;20026;-84
2021/11/17 11:03:29;;;;;;;20.55;3.97;;;13.10;99.90;;;;;;6116515;23;20044;-83
2021/11/17 11:06:05;;;;;;;23.83;3.92;;;13.10;99.90;;;;;;6117699;23;20085;-84
2021/11/17 11:08:37;;;;;;;23.58;3.85;;;13.10;99.90;;;;;;6093619;23;20022;-83
2021/11/17 11:11:06;;;;;;;19.48;3.83;;;13.10;99.90;;;;;;6116997;23;20026;-81
2021/11/17 11:13:44;;;;;;;19.92;3.05;;;13.00;99.90;;;;;;6117449;23;20449;-83
2021/11/17 11:16:21;;;;;;;18.98;3.45;;;13.00;99.90;;;;;;6116980;23;20092;-83
2021/11/17 11:18:56;;;;;;;21.48;3.20;;;13.10;99.90;;;;;;6117151;23;20032;-83
2021/11/17 11:21:40;;;;;;;27.13;4.47;;;13.10;99.90;;;;;;6116682;23;20544;-83
2021/11/17 11:24:27;;;;;;;18.70;3.78;;;13.10;99.90;;;;;;6158590;23;20047;-83
2021/11/17 11:27:02;;;;;;;21.58;3.10;;;13.10;99.90;;;;;;6191505;23;20484;-83
2021/11/17 11:29:40;;;;;;;20.95;3.92;;;13.30;99.90;;;;;;6196524;23;20467;-83
2021/11/17 11:32:11;;;;;;;24.95;3.90;;;13.40;99.90;;;;;;6177514;23;20021;-83
2021/11/17 11:34:38;;;;;;;19.27;3.47;;;13.50;99.90;;;;;;6179769;23;20017;-82
2021/11/17 11:37:31;;;;;;;15.00;3.60;;;13.50;99.90;;;;;;6179181;23;20028;-82
2021/11/17 11:40:04;;;;;;;21.98;3.47;;;13.50;99.90;;;;;;6179328;23;20088;-83
2021/11/17 11:42:59;;;;;;;20.10;3.45;;;13.50;99.90;;;;;;6179558;23;20434;-83
2021/11/17 11:45:26;;;;;;;18.45;2.92;;;13.50;99.90;;;;;;6178637;23;20021;-83
2021/11/17 11:48:00;;;;;;;21.63;3.50;;;13.50;99.90;;;;;;6180029;23;20024;-83
2021/11/17 11:50:30;;;;;;;18.75;3.33;;;13.50;99.90;;;;;;6179009;23;20071;-83
2021/11/17 11:53:08;;;;;;;25.58;3.88;;;13.50;99.90;;;;;;6179606;23;20549;-82
2021/11/17 11:55:49;;;;;;;18.80;3.80;;;13.60;99.90;;;;;;6179256;23;20017;-83
2021/11/17 11:58:20;;;;;;;21.45;4.15;;;13.60;99.90;;;;;;6181504;23;20029;-84
2021/11/17 12:01:05;;;;;;;23.73;3.38;;;13.60;99.90;;;;;;6179072;23;20013;-84
2021/11/17 12:03:36;;;;;;;18.98;3.75;;;13.60;99.90;;;;;;6180283;23;20468;-83
2021/11/17 12:06:09;;;;;;;21.90;3.50;;;13.60;99.90;;;;;;6181535;23;20017;-83
2021/11/17 12:09:03;;;;;;;19.25;4.10;;;13.60;99.90;;;;;;6179174;23;20025;-84
2021/11/17 12:11:31;;;;;;;19.98;4.03;;;13.60;99.90;;;;;;6181249;23;20558;-83
2021/11/17 12:14:04;;;;;;;20.48;3.75;;;13.60;99.90;;;;;;6181551;23;20033;-83
2021/11/17 12:16:44;;;;;;;23.13;4.18;;;13.60;99.90;;;;;;6175178;23;20017;-83
2021/11/17 12:19:26;;;;;;;16.40;2.85;;;13.60;99.90;;;;;;6164767;23;20388;-83
2021/11/17 12:21:58;;;;;;;14.80;2.92;;;13.60;99.90;;;;;;6169459;23;20021;-84
2021/11/17 12:24:33;;;;;;;18.67;3.22;;;13.60;99.90;;;;;;6164269;23;20475;-84
2021/11/17 12:27:08;;;;;;;15.85;3.35;;;13.60;99.90;;;;;;6163666;23;20021;-83
2021/11/17 12:29:56;;;;;;;19.17;3.30;;;13.80;99.90;;;;;;6180402;23;20013;-84
2021/11/17 12:33:02;;;;;;;13.75;3.25;;;13.90;99.90;;;;;;6180930;23;20201;-83
2021/11/17 12:35:47;;;;;;;16.48;3.47;;;13.90;99.90;;;;;;6060109;23;20022;-84
2021/11/17 12:38:23;;;;;;;18.52;3.80;;;14.00;99.90;;;;;;6060539;23;20121;-83
2021/11/17 12:40:57;;;;;;;17.45;3.40;;;14.00;99.90;;;;;;6037232;23;20482;-83
2021/11/17 12:43:38;;;;;;;13.68;2.63;;;13.90;99.90;;;;;;6060155;23;20125;-83
2021/11/17 12:46:26;;;;;;;21.50;3.55;;;13.90;99.90;;;;;;6060116;23;20078;-81
2021/11/17 12:49:14;;;;;;;20.85;3.35;;;13.90;99.90;;;;;;6060417;23;20059;-82
2021/11/17 12:51:54;;;;;;;15.27;3.13;;;13.90;99.90;;;;;;6060763;23;20877;-83
2021/11/17 12:54:34;;;;;;;18.55;3.15;;;13.90;99.90;;;;;;6060756;23;20055;-83
2021/11/17 12:57:17;;;;;;;12.55;2.40;;;13.90;99.90;;;;;;6060664;23;20023;-83
2021/11/17 12:59:52;;;;;;;14.88;3.30;;;14.00;99.90;;;;;;6059894;23;20019;-84
2021/11/17 13:02:22;;;;;;;21.38;3.53;;;14.00;99.90;;;;;;6084745;23;20678;-84
2021/11/17 13:05:26;;;;;;;12.43;3.08;;;14.10;99.90;;;;;;6089398;23;20018;-82
2021/11/17 13:08:04;;;;;;;18.00;3.17;;;14.10;99.90;;;;;;6172547;23;20072;-84
2021/11/17 13:10:42;;;;;;;15.48;3.53;;;14.10;99.90;;;;;;6138293;23;20072;-81
2021/11/17 13:13:10;;;;;;;21.15;4.03;;;14.10;99.90;;;;;;6150322;23;20338;-80
2021/11/17 13:15:54;;;;;;;17.90;3.72;;;14.20;99.90;;;;;;6150867;23;20021;-82
2021/11/17 13:18:48;;;;;;;21.20;3.75;;;14.20;99.90;;;;;;6147505;23;20346;-82
2021/11/17 13:21:21;;;;;;;14.80;3.40;;;14.20;99.90;;;;;;6150845;23;20025;-82
2021/11/17 13:24:01;;;;;;;13.65;2.83;;;14.20;99.90;;;;;;6150492;23;20361;-82
2021/11/17 13:26:34;;;;;;;20.17;3.47;;;14.20;99.90;;;;;;6151793;23;20017;-84
2021/11/17 13:29:25;;;;;;;20.08;3.10;;;14.20;99.90;;;;;;6148521;23;20021;-83
2021/11/17 13:32:12;;;;;;;14.23;2.80;;;14.30;99.90;;;;;;6152343;23;20483;-84
2021/11/17 13:34:44;;;;;;;17.65;2.88;;;14.40;99.90;;;;;;6150759;23;20013;-84
2021/11/17 13:37:13;;;;;;;12.80;3.03;;;14.40;99.90;;;;;;6150626;23;20404;-84
2021/11/17 13:39:41;;;;;;;14.50;2.63;;;14.30;99.90;;;;;;6151840;23;20544;-84
2021/11/17 13:42:08;;;;;;;12.02;2.47;;;14.20;99.90;;;;;;6148685;23;20080;-84
2021/11/17 13:44:36;;;;;;;10.38;2.38;;;14.10;99.90;;;;;;6151653;23;20025;-83
2021/11/17 13:47:22;;;;;;;9.20;2.40;;;14.10;99.90;;;;;;6151047;23;20029;-84
2021/11/17 13:49:51;;;;;;;13.25;2.85;;;14.10;99.90;;;;;;6151764;23;20018;-83
2021/11/17 13:52:23;;;;;;;16.52;2.97;;;14.10;99.90;;;;;;6151181;23;20093;-84
2021/11/17 13:54:50;;;;;;;19.15;2.97;;;14.10;99.90;;;;;;6151473;23;20114;-84
2021/11/17 13:57:18;;;;;;;15.52;2.70;;;14.10;99.90;;;;;;6150504;23;20130;-81
2021/11/17 13:59:46;;;;;;;15.38;2.58;;;14.10;99.90;;;;;;6151168;23;20080;-82
2021/11/17 14:02:14;;;;;;;12.43;2.22;;;14.20;99.90;;;;;;6199315;23;20021;-82
2021/11/17 14:04:42;;;;;;;15.38;2.70;;;14.10;99.90;;;;;;6211387;23;20091;-83
2021/11/17 14:07:16;;;;;;;12.57;2.60;;;14.20;99.90;;;;;;6210841;23;20021;-82
2021/11/17 14:09:44;;;;;;;15.45;2.10;;;14.10;99.90;;;;;;6211448;23;20406;-83
2021/11/17 14:12:11;;;;;;;10.70;2.30;;;14.00;99.90;;;;;;6210273;23;20596;-83
2021/11/17 14:14:39;;;;;;;16.33;2.85;;;14.00;99.90;;;;;;6211356;23;20016;-83
2021/11/17 14:17:07;;;;;;;12.82;2.50;;;13.90;99.90;;;;;;6184450;23;20024;-83
2021/11/17 14:19:35;;;;;;;15.10;2.95;;;13.80;99.90;;;;;;6210241;23;20553;-81
2021/11/17 14:22:03;;;;;;;11.97;2.53;;;13.80;99.90;;;;;;6210532;23;20051;-84
2021/11/17 14:24:30;;;;;;;15.63;2.97;;;13.80;99.90;;;;;;6210611;23;20016;-82
2021/11/17 14:26:59;;;;;;;14.07;2.88;;;13.80;99.90;;;;;;6210841;23;20013;-84
2021/11/17 14:29:33;;;;;;;15.43;2.20;;;13.80;99.90;;;;;;6210200;23;20070;-83
2021/11/17 14:32:09;;;;;;;12.88;2.92;;;13.70;99.90;;;;;;6211017;23;20328;-82
2021/11/17 14:34:36;;;;;;;7.75;1.98;;;13.70;99.90;;;;;;6183264;23;20021;-82
2021/11/17 14:37:05;;;;;;;12.40;2.30;;;13.70;99.90;;;;;;6209841;23;20079;-83
2021/11/17 14:39:41;;;;;;;9.07;1.93;;;13.60;99.90;;;;;;6209542;23;20028;-83
2021/11/17 14:42:09;;;;;;;16.63;2.83;;;13.60;99.90;;;;;;6209446;23;20082;-83
2021/11/17 14:44:36;;;;;;;11.43;2.33;;;13.60;99.90;;;;;;6210279;23;20021;-82
2021/11/17 14:47:04;;;;;;;14.45;2.70;;;13.60;99.90;;;;;;6210264;23;20017;-82
2021/11/17 14:49:32;;;;;;;13.30;2.17;;;13.60;99.90;;;;;;6212065;23;20013;-83
2021/11/17 14:52:02;;;;;;;11.93;2.40;;;13.60;99.90;;;;;;6214446;23;20247;-85
2021/11/17 14:54:30;;;;;;;12.18;2.10;;;13.60;99.90;;;;;;6188543;23;20016;-85
2021/11/17 14:56:57;;;;;;;11.65;2.45;;;13.60;99.90;;;;;;6185605;23;20025;-84
2021/11/17 14:59:24;;;;;;;10.73;2.75;;;13.50;99.90;;;;;;6209795;23;20352;-84
2021/11/17 15:01:51;;;;;;;9.35;2.25;;;13.50;99.90;;;;;;6179384;23;20021;-83
2021/11/17 15:04:18;;;;;;;15.40;2.45;;;13.50;99.90;;;;;;6178791;23;20021;-83
2021/11/17 15:06:45;;;;;;;8.70;2.00;;;13.50;99.90;;;;;;6181449;23;20403;-83
2021/11/17 15:09:15;;;;;;;15.70;2.25;;;13.40;99.90;;;;;;6179886;23;20027;-85
2021/11/17 15:11:55;;;;;;;10.98;2.80;;;13.40;99.90;;;;;;6181516;23;20687;-82
2021/11/17 15:14:24;;;;;;;8.52;1.80;;;13.40;99.90;;;;;;6180290;23;20579;-83
2021/11/17 15:16:52;;;;;;;8.85;2.05;;;13.30;99.90;;;;;;6179472;23;20017;-82
2021/11/17 15:19:20;;;;;;;14.10;3.47;;;13.30;99.90;;;;;;6178523;23;20032;-80
2021/11/17 15:21:47;;;;;;;10.90;2.35;;;13.20;99.90;;;;;;6179482;23;20028;-83
2021/11/17 15:24:29;;;;;;;14.55;2.88;;;13.20;99.90;;;;;;6178925;23;20021;-82
2021/11/17 15:27:28;;;;;;;11.80;2.70;;;13.20;99.90;;;;;;6179014;23;20023;-82
2021/11/17 15:29:56;;;;;;;10.82;2.35;;;13.10;99.90;;;;;;6179270;23;20079;-82
2021/11/17 15:32:23;;;;;;;8.82;2.78;;;13.10;99.90;;;;;;6181431;23;20083;-82
2021/11/17 15:34:50;;;;;;;9.82;2.53;;;13.10;99.90;;;;;;6181735;23;20017;-81
2021/11/17 15:37:18;;;;;;;12.38;2.90;;;13.10;99.90;;;;;;6180770;23;20364;-81
2021/11/17 15:39:45;;;;;;;10.38;2.00;;;13.10;99.90;;;;;;6181444;23;20021;-82
2021/11/17 15:42:12;;;;;;;15.45;2.40;;;13.00;99.90;;;;;;6181007;23;20629;-82
2021/11/17 15:44:39;;;;;;;14.95;2.15;;;13.00;99.90;;;;;;6181676;23;20033;-81
2021/11/17 15:47:09;;;;;;;13.88;2.22;;;13.00;99.90;;;;;;6178733;23;20079;-81
2021/11/17 15:49:41;;;;;;;13.23;2.47;;;13.00;99.90;;;;;;6181775;23;20029;-82
2021/11/17 15:52:10;;;;;;;13.13;3.03;;;13.00;99.90;;;;;;6180994;23;20013;-81
2021/11/17 15:54:37;;;;;;;10.63;2.30;;;13.00;99.90;;;;;;6180020;23;20021;-81
2021/11/17 15:57:04;;;;;;;9.20;2.10;;;13.00;99.90;;;;;;6181318;23;20322;-82
2021/11/17 15:59:55;;;;;;;10.55;1.92;;;13.00;99.90;;;;;;6180961;23;20019;-82
2021/11/17 16:02:22;;;;;;;12.52;2.78;;;12.90;99.90;;;;;;6178810;23;20032;-82
2021/11/17 16:04:49;;;;;;;12.95;2.67;;;12.80;99.90;;;;;;6181088;23;20522;-83
2021/11/17 16:07:20;;;;;;;12.52;2.47;;;12.80;99.90;;;;;;6180250;23;20021;-82
2021/11/17 16:09:54;;;;;;;11.75;2.80;;;12.70;99.90;;;;;;6180109;23;20024;-82
2021/11/17 16:12:27;;;;;;;14.15;2.72;;;12.70;99.90;;;;;;6180073;23;20499;-82
2021/11/17 16:14:55;;;;;;;17.13;2.97;;;12.60;99.90;;;;;;6181187;23;20017;-83
2021/11/17 16:17:23;;;;;;;13.32;2.83;;;12.60;99.90;;;;;;6180248;23;20076;-83
2021/11/17 16:19:53;;;;;;;14.18;2.72;;;12.50;99.90;;;;;;6181766;23;20021;-82
2021/11/17 16:22:34;;;;;;;14.30;2.70;;;12.50;99.90;;;;;;6180019;23;20370;-83
2021/11/17 16:27:51;;;;;;;13.07;3.00;;;12.40;99.90;;;;;;6180641;23;20383;-83
2021/11/17 16:30:27;;;;;;;16.98;3.08;;;12.30;99.90;;;;;;6180172;23;20079;-86
2021/11/17 16:32:55;;;;;;;13.60;3.00;;;12.20;99.90;;;;;;6181416;23;20029;-84
2021/11/17 16:35:23;;;;;;;17.83;3.50;;;12.20;99.90;;;;;;6178504;23;20068;-84
2021/11/17 16:37:53;;;;;;;19.67;3.63;;;12.10;99.90;;;;;;6180453;23;20033;-81
2021/11/17 16:40:23;;;;;;;26.10;3.63;;;12.00;99.90;;;;;;6180635;23;20118;-83
2021/11/17 16:42:50;;;;;;;13.43;3.13;;;11.90;99.90;;;;;;6176605;23;20025;-84
2021/11/17 16:45:28;;;;;;;20.95;3.67;;;11.80;99.90;;;;;;6174281;23;20055;-83
2021/11/17 16:47:58;;;;;;;19.83;3.93;;;11.70;99.90;;;;;;6179375;23;20067;-83
2021/11/17 16:50:25;;;;;;;24.42;4.07;;;11.60;99.90;;;;;;6179298;23;20087;-83
2021/11/17 16:52:55;;;;;;;11.98;3.05;;;11.50;99.90;;;;;;6178716;23;20356;-83
2021/11/17 16:55:39;;;;;;;21.55;4.40;;;11.40;99.90;;;;;;6179277;23;20033;-83
2021/11/17 16:58:06;;;;;;;15.13;4.55;;;11.30;99.90;;;;;;6179061;23;20075;-84
2021/11/17 17:00:39;;;;;;;21.90;4.65;;;11.30;99.90;;;;;;6179778;23;20091;-83
2021/11/17 17:03:13;;;;;;;19.10;4.22;;;11.20;99.90;;;;;;6208773;23;20459;-83
2021/11/17 17:05:42;;;;;;;27.48;4.90;;;11.20;99.90;;;;;;6209066;23;20020;-83
2021/11/17 17:08:09;;;;;;;;;;;11.10;99.90;;;;;;6209792;23;20020;-83
2021/11/17 17:10:37;;;;;;;28.88;4.60;;;11.10;99.90;;;;;;6209152;23;19920;-84
2021/11/17 17:13:04;;;;;;;20.10;4.65;;;11.00;99.90;;;;;;6209363;23;20548;-82
2021/11/17 17:15:43;;;;;;;22.63;4.13;;;11.00;99.90;;;;;;6208671;23;20394;-82
2021/11/17 17:18:15;;;;;;;20.85;3.88;;;10.90;99.90;;;;;;6208788;23;20108;-83
2021/11/17 17:20:48;;;;;;;23.73;4.90;;;10.90;99.90;;;;;;6209504;23;20015;-81
2021/11/17 17:23:16;;;;;;;25.23;4.70;;;10.90;99.90;;;;;;6181029;23;20545;-85
2021/11/17 17:25:45;;;;;;;22.77;4.75;;;10.80;99.90;;;;;;6182934;23;20024;-81
2021/11/17 17:28:17;;;;;;;34.70;5.80;;;10.80;99.90;;;;;;6208729;23;20473;-81
2021/11/17 17:30:48;;;;;;;31.58;5.60;;;10.70;99.90;;;;;;6182777;23;20017;-82
2021/11/17 17:33:22;;;;;;;30.90;5.30;;;10.70;99.90;;;;;;6182692;23;20362;-82
2021/11/17 17:35:50;;;;;;;21.75;4.00;;;10.60;99.90;;;;;;6209229;23;20059;-84
2021/11/17 17:38:17;;;;;;;27.90;4.60;;;10.60;99.90;;;;;;6181642;23;20375;-83
2021/11/17 17:40:45;;;;;;;30.08;5.75;;;10.60;99.90;;;;;;6184063;23;20067;-84
2021/11/17 17:43:15;;;;;;;20.95;5.30;;;10.60;99.90;;;;;;6181239;23;20091;-84
2021/11/17 17:45:43;;;;;;;28.38;5.35;;;10.50;99.90;;;;;;6208801;23;20334;-84
2021/11/17 17:48:10;;;;;;;23.42;5.50;;;10.50;99.90;;;;;;6207633;23;20021;-83
2021/11/17 17:50:47;;;;;;;34.38;6.30;;;10.50;99.90;;;;;;6182981;23;20027;-84
2021/11/17 17:53:21;;;;;;;36.92;6.57;;;10.40;99.90;;;;;;6207184;23;20074;-84
2021/11/17 17:55:51;;;;;;;20.63;5.50;;;10.40;99.90;;;;;;6209460;23;20070;-85
2021/11/17 17:58:19;;;;;;;26.00;7.15;;;10.30;99.90;;;;;;6208097;23;20024;-84
2021/11/17 18:00:48;;;;;;;24.73;6.60;;;10.30;99.90;;;;;;6208752;23;20341;-83
2021/11/17 18:03:21;;;;;;;33.47;6.55;;;10.30;99.90;;;;;;6181568;23;20074;-83
2021/11/17 18:05:48;;;;;;;24.98;6.10;;;10.20;99.90;;;;;;6210847;23;20309;-82
2021/11/17 18:08:16;;;;;;;24.13;6.40;;;10.20;99.90;;;;;;6182424;23;20025;-84
2021/11/17 18:10:45;;;;;;;31.70;6.22;;;10.20;99.90;;;;;;6209796;23;20086;-84
2021/11/17 18:13:15;;;;;;;21.10;4.80;;;10.10;99.90;;;;;;6205339;23;20090;-82
2021/11/17 18:16:05;;;;;;;28.10;5.22;;;10.10;99.90;;;;;;6209166;23;20061;-83
2021/11/17 18:18:56;;;;;;;26.05;4.78;;;10.10;99.90;;;;;;6187142;23;20114;-83
2021/11/17 18:21:27;;;;;;;31.58;5.75;;;10.10;99.90;;;;;;6181550;23;20021;-82
2021/11/17 18:23:56;;;;;;;30.17;6.07;;;10.00;99.90;;;;;;6208362;23;20025;-85
2021/11/17 18:26:25;;;;;;;25.35;5.47;;;10.00;99.90;;;;;;6182350;23;20016;-84
2021/11/17 18:28:52;;;;;;;27.25;5.22;;;10.00;99.90;;;;;;6207855;23;20064;-84
2021/11/17 18:31:21;;;;;;;34.75;5.53;;;10.10;99.90;;;;;;6181404;23;20028;-84
2021/11/17 18:33:51;;;;;;;24.15;5.20;;;10.10;99.90;;;;;;6207590;23;20032;-84
2021/11/17 18:36:20;;;;;;;26.38;5.43;;;10.00;99.90;;;;;;6208219;23;20273;-84
2021/11/17 18:38:48;;;;;;;23.67;5.85;;;10.00;99.90;;;;;;6181549;23;20071;-84
2021/11/17 18:41:49;;;;;;;32.08;5.95;;;10.00;99.90;;;;;;6182146;23;20352;-84
2021/11/17 18:44:17;;;;;;;32.95;5.63;;;10.00;99.90;;;;;;6057332;23;20026;-83
2021/11/17 18:46:44;;;;;;;31.83;6.25;;;9.90;99.90;;;;;;6058063;23;20090;-83
2021/11/17 18:49:14;;;;;;;36.42;6.72;;;9.90;99.90;;;;;;6057674;23;20026;-84
2021/11/17 18:51:42;;;;;;;28.05;5.22;;;9.90;99.90;;;;;;6057964;23;20022;-84
2021/11/17 18:54:10;;;;;;;45.60;7.13;;;9.90;99.90;;;;;;6057334;23;20458;-85
2021/11/17 18:56:37;;;;;;;34.13;6.45;;;9.80;99.90;;;;;;6058160;23;20376;-85
2021/11/17 18:59:06;;;;;;;38.67;6.55;;;9.80;99.90;;;;;;6057968;23;20019;-83
2021/11/17 19:01:41;;;;;;;27.20;5.43;;;9.80;99.90;;;;;;6159553;23;20621;-84
2021/11/17 19:04:08;;;;;;;29.67;6.20;;;9.80;99.90;;;;;;6207139;23;20023;-84
2021/11/17 19:06:36;;;;;;;28.60;5.93;;;9.80;99.90;;;;;;6208461;23;20082;-84
2021/11/17 19:09:07;;;;;;;35.13;7.15;;;9.70;99.90;;;;;;6181898;23;20298;-84
2021/11/17 19:11:46;;;;;;;35.33;6.75;;;9.70;99.90;;;;;;6182204;23;20016;-84
2021/11/17 19:14:12;;;;;;;47.42;7.97;;;9.70;99.90;;;;;;6207257;23;20020;-83
2021/11/17 19:16:39;;;;;;;36.67;6.20;;;9.70;99.90;;;;;;6207785;23;20028;-81
2021/11/17 19:19:13;;;;;;;27.38;6.20;;;9.70;99.90;;;;;;6205538;23;20020;-82
2021/11/17 19:21:45;;;;;;;26.70;6.68;;;9.70;99.90;;;;;;6176881;23;20025;-82
2021/11/17 19:24:12;;;;;;;30.08;7.07;;;9.60;99.90;;;;;;6203999;23;20020;-82
2021/11/17 19:26:39;;;;;;;33.65;6.45;;;9.60;99.90;;;;;;6204042;23;20070;-81
2021/11/17 19:29:06;;;;;;;30.42;7.38;;;9.60;99.90;;;;;;6173408;23;20095;-82
2021/11/17 19:31:33;;;;;;;33.45;6.13;;;9.50;99.90;;;;;;6202425;23;20028;-83
2021/11/17 19:34:00;;;;;;;34.35;7.63;;;9.50;99.90;;;;;;6204097;23;20363;-81
2021/11/17 19:36:31;;;;;;;33.47;6.65;;;9.50;99.90;;;;;;6203187;23;20471;-82
2021/11/17 19:38:59;;;;;;;36.58;6.75;;;9.50;99.90;;;;;;6155808;23;20025;-82
2021/11/17 19:41:34;;;;;;;32.13;6.40;;;9.40;99.90;;;;;;6153544;23;20403;-82
2021/11/17 19:44:03;;;;;;;27.48;6.15;;;9.40;99.90;;;;;;6145093;23;20734;-82
2021/11/17 19:46:30;;;;;;;33.20;6.38;;;9.40;99.90;;;;;;6156026;23;20025;-81
2021/11/17 19:49:04;;;;;;;34.22;7.38;;;9.30;99.90;;;;;;6141902;23;20026;-81
2021/11/17 19:51:33;;;;;;;34.30;6.38;;;9.30;99.90;;;;;;6153333;23;20017;-80
2021/11/17 19:54:02;;;;;;;32.40;6.80;;;9.30;99.90;;;;;;6116413;23;20017;-80
2021/11/17 19:56:30;;;;;;;30.52;6.28;;;9.30;99.90;;;;;;6143896;23;20472;-80
2021/11/17 19:58:59;;;;;;;26.37;6.27;;;9.30;99.90;;;;;;6143557;23;20083;-80
2021/11/17 20:01:26;;;;;;;43.85;7.15;;;9.20;99.90;;;;;;6142910;23;20017;-79
2021/11/17 20:03:54;;;;;;;40.28;7.22;;;9.20;99.90;;;;;;6143598;23;20412;-80
2021/11/17 20:06:21;;;;;;;36.90;6.28;;;9.10;99.90;;;;;;6121956;23;20026;-79
2021/11/17 20:08:49;;;;;;;37.00;7.30;;;9.10;99.90;;;;;;6175454;23;20084;-79
2021/11/17 20:11:17;;;;;;;29.35;7.03;;;9.10;99.90;;;;;;6174618;23;20028;-80
2021/11/17 20:13:44;;;;;;;35.10;6.73;;;9.10;99.90;;;;;;6174489;23;20020;-80
2021/11/17 20:16:13;;;;;;;27.23;5.80;;;9.10;99.90;;;;;;6131011;23;20522;-80
2021/11/17 20:18:43;;;;;;;36.97;7.55;;;9.00;99.90;;;;;;6149928;23;20052;-80